createdAt,value
2018-11-12T00:00:13.766Z,2.07
2018-11-12T00:02:42.499Z,2.37
2018-11-12T00:05:11.269Z,2.00
2018-11-12T00:07:40.038Z,1.60
2018-11-12T00:10:09.101Z,2.57
2018-11-12T00:12:37.965Z,1.63
2018-11-12T00:15:07.650Z,2.07
2018-11-12T00:17:36.490Z,1.80
2018-11-12T00:20:05.745Z,2.93
2018-11-12T00:22:34.841Z,2.60
2018-11-12T00:25:03.563Z,1.53
2018-11-12T00:27:32.321Z,1.80
2018-11-12T00:30:01.020Z,2.43
2018-11-12T00:32:29.764Z,1.70
2018-11-12T00:34:58.565Z,1.83
2018-11-12T00:37:27.210Z,1.70
2018-11-12T00:39:55.854Z,2.43
2018-11-12T00:42:24.602Z,2.17
2018-11-12T00:44:53.260Z,2.30
2018-11-12T00:47:22.033Z,2.50
2018-11-12T00:49:50.706Z,1.30
2018-11-12T00:52:19.446Z,2.47
2018-11-12T00:54:49.090Z,2.83
2018-11-12T00:57:17.792Z,1.20
2018-11-12T00:59:46.493Z,1.73
2018-11-12T01:02:15.177Z,1.23
2018-11-12T01:04:50.473Z,2.80
2018-11-12T01:07:19.169Z,1.77
2018-11-12T01:09:47.860Z,1.10
2018-11-12T01:12:16.526Z,1.77
2018-11-12T01:14:45.228Z,1.00
2018-11-12T01:17:13.878Z,2.57
2018-11-12T01:19:42.558Z,1.63
2018-11-12T01:22:11.307Z,1.03
2018-11-12T01:24:40.007Z,1.63
2018-11-12T01:27:08.667Z,1.60
2018-11-12T01:29:37.404Z,1.33
2018-11-12T01:32:06.159Z,1.43
2018-11-12T01:34:34.873Z,1.10
2018-11-12T01:37:03.602Z,1.30
2018-11-12T01:39:32.302Z,1.53
2018-11-12T01:42:01.111Z,1.20
2018-11-12T01:44:29.756Z,1.27
2018-11-12T01:46:58.447Z,1.67
2018-11-12T01:49:27.100Z,1.50
2018-11-12T01:51:55.806Z,1.50
2018-11-12T01:54:24.497Z,1.60
2018-11-12T01:56:53.154Z,1.83
2018-11-12T01:59:21.830Z,1.00
2018-11-12T02:01:50.600Z,2.13
2018-11-12T02:04:19.277Z,4.53
2018-11-12T02:06:47.944Z,1.87
2018-11-12T02:09:16.642Z,2.67
2018-11-12T02:11:45.364Z,1.83
2018-11-12T02:14:14.016Z,2.47
2018-11-12T02:16:42.694Z,1.07
2018-11-12T02:19:11.394Z,1.30
2018-11-12T02:21:40.133Z,1.20
2018-11-12T02:24:08.867Z,1.57
2018-11-12T02:26:37.569Z,2.33
2018-11-12T02:29:06.461Z,1.93
2018-11-12T02:31:35.121Z,1.90
2018-11-12T02:34:03.899Z,1.67
2018-11-12T02:36:32.658Z,1.47
2018-11-12T02:39:01.376Z,2.23
2018-11-12T02:41:30.157Z,2.27
2018-11-12T02:43:58.878Z,2.53
2018-11-12T02:46:27.631Z,1.10
2018-11-12T02:48:56.393Z,1.10
2018-11-12T02:51:25.106Z,1.57
2018-11-12T02:53:53.790Z,1.27
2018-11-12T02:56:22.554Z,1.70
2018-11-12T02:58:51.313Z,3.70
2018-11-12T03:01:22.004Z,0.97
2018-11-12T03:03:51.584Z,1.20
2018-11-12T03:06:20.459Z,1.27
2018-11-12T03:08:49.224Z,3.50
2018-11-12T03:11:17.942Z,2.73
2018-11-12T03:13:46.701Z,2.80
2018-11-12T03:16:15.481Z,1.27
2018-11-12T03:18:44.302Z,1.30
2018-11-12T03:21:12.959Z,1.63
2018-11-12T03:23:41.627Z,1.60
2018-11-12T03:26:10.377Z,3.93
2018-11-12T03:28:39.067Z,1.80
2018-11-12T03:31:07.843Z,1.20
2018-11-12T03:33:36.523Z,2.53
2018-11-12T03:36:05.992Z,2.87
2018-11-12T03:38:34.806Z,1.33
2018-11-12T03:41:03.606Z,1.43
2018-11-12T03:43:32.325Z,1.73
2018-11-12T03:46:01.082Z,1.20
2018-11-12T03:48:29.809Z,2.63
2018-11-12T03:50:58.577Z,2.33
2018-11-12T03:53:27.391Z,3.33
2018-11-12T03:55:56.103Z,1.43
2018-11-12T03:58:24.941Z,3.00
2018-11-12T04:00:53.702Z,1.67
2018-11-12T04:03:22.412Z,1.07
2018-11-12T04:05:51.235Z,1.43
2018-11-12T04:08:19.960Z,1.33
2018-11-12T04:10:48.650Z,1.20
2018-11-12T04:13:17.403Z,3.97
2018-11-12T04:15:46.147Z,1.10
2018-11-12T04:18:14.896Z,2.90
2018-11-12T04:20:43.626Z,1.30
2018-11-12T04:23:12.378Z,1.87
2018-11-12T04:25:41.582Z,1.53
2018-11-12T04:28:10.313Z,1.80
2018-11-12T04:30:39.043Z,1.73
2018-11-12T04:33:07.789Z,3.93
2018-11-12T04:35:36.534Z,2.53
2018-11-12T04:38:05.319Z,1.67
2018-11-12T04:40:34.055Z,3.60
2018-11-12T04:43:02.756Z,3.67
2018-11-12T04:45:31.515Z,2.70
2018-11-12T04:48:00.302Z,1.60
2018-11-12T04:50:29.585Z,2.63
2018-11-12T04:52:58.357Z,2.23
2018-11-12T04:55:27.138Z,1.77
2018-11-12T04:57:55.890Z,2.57
2018-11-12T05:00:26.711Z,2.60
2018-11-12T05:02:55.581Z,2.00
2018-11-12T05:05:25.595Z,2.83
2018-11-12T05:07:54.382Z,2.00
2018-11-12T05:10:24.252Z,1.70
2018-11-12T05:12:53.356Z,3.10
2018-11-12T05:15:23.138Z,2.67
2018-11-12T05:17:51.937Z,2.40
2018-11-12T05:20:22.915Z,2.20
2018-11-12T05:22:51.688Z,2.83
2018-11-12T05:25:20.409Z,2.67
2018-11-12T05:27:49.259Z,3.40
2018-11-12T05:30:19.805Z,3.07
2018-11-12T05:32:48.543Z,2.23
2018-11-12T05:35:18.720Z,2.23
2018-11-12T05:37:47.488Z,2.70
2018-11-12T05:40:19.308Z,2.23
2018-11-12T05:42:48.189Z,2.40
2018-11-12T05:45:18.074Z,3.40
2018-11-12T05:47:46.855Z,3.43
2018-11-12T05:50:20.166Z,2.80
2018-11-12T05:52:50.942Z,3.67
2018-11-12T05:55:21.069Z,3.60
2018-11-12T05:57:49.814Z,4.40
2018-11-12T06:00:21.445Z,4.00
2018-11-12T06:02:50.205Z,3.40
2018-11-12T06:05:18.920Z,5.90
2018-11-12T06:07:47.672Z,4.07
2018-11-12T06:10:18.699Z,3.57
2018-11-12T06:12:47.548Z,3.47
2018-11-12T06:15:16.537Z,4.37
2018-11-12T06:17:45.981Z,3.27
2018-11-12T06:20:16.983Z,3.70
2018-11-12T06:22:45.750Z,4.73
2018-11-12T06:25:16.405Z,4.40
2018-11-12T06:27:45.174Z,3.77
2018-11-12T06:30:15.651Z,4.93
2018-11-12T06:32:44.365Z,5.40
2018-11-12T06:35:13.942Z,3.70
2018-11-12T06:37:43.319Z,5.57
2018-11-12T06:40:13.895Z,3.77
2018-11-12T06:42:42.733Z,3.40
2018-11-12T06:45:16.498Z,3.43
2018-11-12T06:47:46.050Z,6.57
2018-11-12T06:50:16.092Z,3.30
2018-11-12T06:52:44.908Z,5.20
2018-11-12T06:55:14.455Z,3.90
2018-11-12T06:57:43.513Z,3.50
2018-11-12T07:00:30.071Z,4.77
2018-11-12T07:02:58.806Z,4.13
2018-11-12T07:05:27.887Z,4.33
2018-11-12T07:07:56.548Z,4.00
2018-11-12T07:10:26.465Z,4.53
2018-11-12T07:12:55.906Z,5.47
2018-11-12T07:15:26.741Z,4.07
2018-11-12T07:17:55.471Z,4.80
2018-11-12T07:20:25.255Z,4.17
2018-11-12T07:22:54.336Z,4.03
2018-11-12T07:25:24.741Z,4.20
2018-11-12T07:27:53.388Z,4.47
2018-11-12T07:30:24.251Z,3.90
2018-11-12T07:32:54.003Z,4.13
2018-11-12T07:35:22.913Z,4.10
2018-11-12T07:37:52.741Z,4.10
2018-11-12T07:40:21.868Z,5.73
2018-11-12T07:42:50.594Z,8.20
2018-11-12T07:45:20.500Z,6.37
2018-11-12T07:47:50.052Z,4.73
2018-11-12T07:50:20.091Z,4.37
2018-11-12T07:52:48.860Z,4.47
2018-11-12T07:55:19.346Z,4.47
2018-11-12T07:57:49.323Z,4.90
2018-11-12T08:00:34.845Z,5.53
2018-11-12T08:03:06.769Z,4.97
2018-11-12T08:05:35.872Z,4.30
2018-11-12T08:08:04.663Z,5.00
2018-11-12T08:10:33.391Z,5.10
2018-11-12T08:13:02.219Z,4.97
2018-11-12T08:15:30.929Z,4.53
2018-11-12T08:17:59.693Z,5.53
2018-11-12T08:20:28.422Z,6.67
2018-11-12T08:22:57.122Z,8.97
2018-11-12T08:25:25.821Z,7.10
2018-11-12T08:27:54.505Z,6.90
2018-11-12T08:30:24.612Z,7.47
2018-11-12T08:32:55.428Z,6.03
2018-11-12T08:35:24.105Z,5.70
2018-11-12T08:37:53.314Z,5.77
2018-11-12T08:40:23.222Z,6.17
2018-11-12T08:42:51.908Z,5.40
2018-11-12T08:45:26.988Z,5.37
2018-11-12T08:47:56.427Z,7.03
2018-11-12T08:50:26.215Z,6.47
2018-11-12T08:52:55.746Z,5.67
2018-11-12T08:55:25.813Z,7.73
2018-11-12T08:57:56.001Z,5.77
2018-11-12T09:00:25.498Z,4.97
2018-11-12T09:02:54.202Z,4.83
2018-11-12T09:05:24.297Z,4.87
2018-11-12T09:07:54.459Z,4.43
2018-11-12T09:10:25.363Z,5.43
2018-11-12T09:12:54.043Z,4.20
2018-11-12T09:15:22.735Z,3.77
2018-11-12T09:17:51.415Z,3.67
2018-11-12T09:20:24.620Z,3.37
2018-11-12T09:22:53.608Z,3.17
2018-11-12T09:25:23.407Z,3.60
2018-11-12T09:27:52.202Z,4.20
2018-11-12T09:30:25.545Z,3.93
2018-11-12T09:32:54.303Z,4.10
2018-11-12T09:35:24.266Z,5.13
2018-11-12T09:37:53.920Z,5.90
2018-11-12T09:40:25.410Z,3.73
2018-11-12T09:42:54.176Z,4.20
2018-11-12T09:45:22.844Z,5.03
2018-11-12T09:47:51.674Z,4.43
2018-11-12T09:50:21.510Z,4.90
2018-11-12T09:52:51.383Z,5.80
2018-11-12T09:55:20.962Z,4.97
2018-11-12T09:57:55.290Z,7.40
2018-11-12T10:00:24.200Z,4.47
2018-11-12T10:02:53.356Z,4.57
2018-11-12T10:05:23.166Z,4.40
2018-11-12T10:08:02.163Z,4.27
2018-11-12T10:10:52.050Z,5.03
2018-11-12T10:13:22.209Z,4.03
2018-11-12T10:15:51.398Z,3.07
2018-11-12T10:18:17.698Z,3.30
2018-11-12T10:20:46.403Z,3.77
2018-11-12T10:23:15.126Z,3.10
2018-11-12T10:25:43.874Z,2.90
2018-11-12T10:28:12.546Z,3.43
2018-11-12T10:30:41.254Z,3.00
2018-11-12T10:33:09.925Z,2.73
2018-11-12T10:35:38.673Z,5.23
2018-11-12T10:38:08.226Z,3.57
2018-11-12T10:40:36.976Z,4.53
2018-11-12T10:43:05.755Z,4.43
2018-11-12T10:45:34.419Z,5.03
2018-11-12T10:48:03.177Z,4.03
2018-11-12T10:50:31.892Z,6.17
2018-11-12T10:53:00.567Z,4.50
2018-11-12T10:55:29.497Z,5.03
2018-11-12T10:57:58.398Z,4.93
2018-11-12T11:00:37.338Z,3.70
2018-11-12T11:03:14.955Z,3.53
2018-11-12T11:05:45.183Z,5.80
2018-11-12T11:08:14.030Z,5.50
2018-11-12T11:10:42.762Z,4.90
2018-11-12T11:13:11.546Z,3.20
2018-11-12T11:15:40.533Z,3.50
2018-11-12T11:18:09.239Z,3.77
2018-11-12T11:20:38.163Z,5.57
2018-11-12T11:23:06.918Z,4.67
2018-11-12T11:25:35.770Z,4.43
2018-11-12T11:28:11.161Z,5.20
2018-11-12T11:30:39.916Z,4.97
2018-11-12T11:33:08.663Z,5.20
2018-11-12T11:35:37.481Z,5.27
2018-11-12T11:38:06.366Z,3.90
2018-11-12T11:40:35.171Z,6.60
2018-11-12T11:43:03.934Z,5.90
2018-11-12T11:45:32.684Z,4.13
2018-11-12T11:48:01.539Z,3.73
2018-11-12T11:50:30.462Z,4.03
2018-11-12T11:52:58.991Z,3.87
2018-11-12T11:55:27.787Z,4.47
2018-11-12T11:57:56.532Z,4.90
2018-11-12T12:00:26.688Z,5.47
2018-11-12T12:02:56.715Z,7.43
2018-11-12T12:17:08.342Z,6.97
2018-11-12T12:19:37.006Z,6.90
2018-11-12T12:22:05.769Z,6.33
2018-11-12T12:27:26.496Z,5.93
2018-11-12T12:29:57.287Z,6.87
2018-11-12T12:32:25.993Z,8.00
2018-11-12T12:34:54.633Z,6.83
2018-11-12T12:37:23.306Z,7.27
2018-11-12T12:39:52.066Z,11.93
2018-11-12T12:42:20.908Z,12.73
2018-11-12T12:44:49.629Z,12.83
2018-11-12T12:47:18.289Z,12.50
2018-11-12T12:49:46.971Z,14.67
2018-11-12T12:52:15.640Z,13.07
2018-11-12T12:54:44.313Z,13.00
2018-11-12T12:57:12.966Z,13.63
2018-11-12T12:59:42.689Z,12.80
2018-11-12T13:02:12.087Z,12.83
2018-11-12T13:04:40.713Z,13.43
2018-11-12T13:07:09.355Z,14.53
2018-11-12T13:09:38.013Z,15.50
2018-11-12T13:12:06.743Z,15.17
2018-11-12T13:14:35.438Z,15.70
2018-11-12T13:17:04.102Z,15.53
2018-11-12T13:19:32.799Z,15.63
2018-11-12T13:22:01.529Z,16.30
2018-11-12T13:24:30.657Z,16.60
2018-11-12T13:26:59.357Z,19.43
2018-11-12T13:29:27.998Z,16.27
2018-11-12T13:31:56.633Z,15.90
2018-11-12T13:34:25.313Z,17.53
2018-11-12T13:36:53.978Z,16.13
2018-11-12T13:39:22.728Z,16.00
2018-11-12T13:41:51.356Z,15.97
2018-11-12T13:44:19.975Z,17.13
2018-11-12T13:46:53.953Z,17.53
2018-11-12T13:49:22.632Z,17.57
2018-11-12T13:51:51.342Z,17.37
2018-11-12T13:54:20.026Z,18.33
2018-11-12T13:56:48.710Z,16.73
2018-11-12T13:59:17.406Z,18.50
2018-11-12T14:01:46.026Z,17.83
2018-11-12T14:04:14.696Z,17.83
2018-11-12T14:06:43.413Z,18.67
2018-11-12T14:09:12.881Z,18.43
2018-11-12T14:11:41.588Z,19.57
2018-11-12T14:14:10.220Z,16.97
2018-11-12T14:16:38.906Z,17.80
2018-11-12T14:19:07.549Z,17.17
2018-11-12T14:21:36.463Z,16.23
2018-11-12T14:24:04.985Z,16.73
2018-11-12T14:26:33.860Z,17.20
2018-11-12T14:29:02.564Z,16.57
2018-11-12T14:31:31.285Z,18.20
2018-11-12T14:33:59.978Z,17.20
2018-11-12T14:36:28.605Z,18.70
2018-11-12T14:38:57.372Z,19.20
2018-11-12T14:41:26.072Z,20.67
2018-11-12T14:43:54.820Z,18.63
2018-11-12T14:46:23.575Z,20.17
2018-11-12T14:48:52.201Z,20.63
2018-11-12T14:51:20.900Z,23.87
2018-11-12T14:53:49.612Z,26.27
2018-11-12T14:56:18.302Z,34.97
2018-11-12T14:58:47.051Z,36.47
2018-11-12T15:01:15.701Z,31.43
2018-11-12T15:03:46.923Z,32.30
2018-11-12T15:06:15.812Z,31.13
2018-11-12T15:08:44.517Z,32.60
2018-11-12T15:11:13.543Z,32.97
2018-11-12T15:13:42.271Z,34.20
2018-11-12T15:16:10.981Z,39.37
2018-11-12T15:18:40.152Z,42.40
2018-11-12T15:21:08.863Z,32.83
2018-11-12T15:23:37.525Z,34.20
2018-11-12T15:26:06.595Z,36.33
2018-11-12T15:28:35.249Z,35.13
2018-11-12T15:31:03.922Z,34.33
2018-11-12T15:33:32.623Z,32.83
2018-11-12T15:36:01.325Z,32.73
2018-11-12T15:38:30.044Z,32.97
2018-11-12T15:40:58.713Z,32.97
2018-11-12T15:43:27.575Z,33.23
2018-11-12T15:45:56.307Z,35.67
2018-11-12T15:48:24.975Z,34.57
2018-11-12T15:50:53.790Z,32.63
2018-11-12T15:53:22.443Z,35.73
2018-11-12T15:55:51.098Z,36.40
2018-11-12T15:58:19.827Z,34.60
2018-11-12T16:00:48.526Z,35.03
2018-11-12T16:03:17.221Z,36.63
2018-11-12T16:05:45.926Z,36.20
2018-11-12T16:08:14.669Z,36.33
2018-11-12T16:10:43.343Z,33.23
2018-11-12T16:13:12.088Z,33.87
2018-11-12T16:15:40.756Z,35.37
2018-11-12T16:18:09.417Z,30.63
2018-11-12T16:20:38.110Z,28.27
2018-11-12T16:23:06.852Z,27.00
2018-11-12T16:25:42.064Z,28.30
2018-11-12T16:28:10.777Z,26.70
2018-11-12T16:30:39.494Z,27.47
2018-11-12T16:33:08.228Z,24.53
2018-11-12T16:35:36.928Z,22.97
2018-11-12T16:38:05.946Z,21.03
2018-11-12T16:40:34.663Z,21.27
2018-11-12T16:43:03.371Z,19.53
2018-11-12T16:45:32.040Z,19.83
2018-11-12T16:48:00.753Z,18.93
2018-11-12T16:50:29.482Z,21.20
2018-11-12T16:52:58.226Z,18.53
2018-11-12T16:55:26.894Z,21.50
2018-11-12T16:57:55.551Z,19.20
2018-11-12T17:00:25.058Z,21.53
2018-11-12T17:02:53.773Z,18.17
2018-11-12T17:05:23.830Z,18.87
2018-11-12T17:07:52.534Z,17.97
2018-11-12T17:10:22.927Z,19.53
2018-11-12T17:12:51.664Z,19.17
2018-11-12T17:15:20.342Z,20.17
2018-11-12T17:17:49.420Z,21.30
2018-11-12T17:20:19.600Z,22.97
2018-11-12T17:22:48.315Z,22.67
2018-11-12T17:25:23.772Z,23.63
2018-11-12T17:27:52.658Z,25.20
2018-11-12T17:30:22.219Z,23.50
2018-11-12T17:32:51.252Z,24.27
2018-11-12T17:35:21.131Z,25.23
2018-11-12T17:37:49.993Z,23.27
2018-11-12T17:40:20.882Z,23.87
2018-11-12T17:42:50.303Z,24.40
2018-11-12T17:45:20.419Z,24.60
2018-11-12T17:47:50.112Z,23.77
2018-11-12T17:50:18.878Z,24.23
2018-11-12T17:52:48.445Z,24.93
2018-11-12T17:55:17.160Z,23.30
2018-11-12T17:57:46.465Z,24.27
2018-11-12T18:00:18.512Z,22.47
2018-11-12T18:02:47.850Z,24.87
2018-11-12T18:05:16.587Z,22.93
2018-11-12T18:07:45.407Z,23.40
2018-11-12T18:10:15.073Z,25.57
2018-11-12T18:12:43.837Z,22.00
2018-11-12T18:15:21.051Z,21.80
2018-11-12T18:17:49.902Z,21.87
2018-11-12T18:20:20.729Z,24.33
2018-11-12T18:22:50.022Z,24.07
2018-11-12T18:25:18.702Z,21.90
2018-11-12T18:27:47.406Z,21.50
2018-11-12T18:30:19.598Z,21.37
2018-11-12T18:32:49.299Z,22.07
2018-11-12T18:35:18.017Z,20.87
2018-11-12T18:37:46.755Z,21.63
2018-11-12T18:40:16.961Z,21.57
2018-11-12T18:47:56.984Z,22.63
2018-11-12T18:50:27.636Z,21.40
2018-11-12T18:52:56.937Z,22.00
2018-11-12T18:55:25.612Z,25.63
2018-11-12T18:57:54.861Z,26.73
2018-11-12T19:00:24.593Z,29.67
2018-11-12T19:02:53.534Z,25.90
2018-11-12T19:05:24.667Z,28.20
2018-11-12T19:07:54.591Z,29.43
2018-11-12T19:10:25.593Z,29.10
2018-11-12T19:12:54.806Z,29.77
2018-11-12T19:15:25.061Z,31.13
2018-11-12T19:17:58.148Z,28.97
2018-11-12T19:20:26.877Z,29.57
2018-11-12T19:22:55.900Z,29.60
2018-11-12T19:25:25.031Z,29.97
2018-11-12T19:27:53.697Z,30.57
2018-11-12T19:30:24.740Z,29.87
2018-11-12T19:32:53.515Z,28.77
2018-11-12T19:35:23.775Z,28.13
2018-11-12T19:37:52.460Z,29.70
2018-11-12T19:40:22.529Z,29.70
2018-11-12T19:42:52.277Z,32.07
2018-11-12T19:45:21.015Z,30.33
2018-11-12T19:47:50.693Z,29.43
2018-11-12T19:50:20.834Z,30.17
2018-11-12T19:52:50.848Z,31.47
2018-11-12T19:55:19.666Z,29.70
2018-11-12T19:57:48.802Z,28.53
2018-11-12T20:00:19.506Z,29.13
2018-11-12T20:02:53.207Z,28.27
2018-11-12T20:05:21.897Z,27.90
2018-11-12T20:07:50.558Z,24.97
2018-11-12T20:10:20.634Z,26.17
2018-11-12T20:12:49.312Z,24.80
2018-11-12T20:15:19.282Z,23.73
2018-11-12T20:17:48.840Z,24.17
2018-11-12T20:20:20.019Z,23.10
2018-11-12T20:22:49.191Z,23.73
2018-11-12T20:25:18.728Z,23.77
2018-11-12T20:27:47.971Z,23.73
2018-11-12T20:30:19.850Z,27.97
2018-11-12T20:32:48.570Z,29.80
2018-11-12T20:35:17.250Z,29.57
2018-11-12T20:37:45.940Z,33.67
2018-11-12T20:40:15.590Z,31.10
2018-11-12T20:42:45.356Z,32.13
2018-11-12T20:45:15.405Z,33.13
2018-11-12T20:47:45.214Z,35.70
2018-11-12T20:50:14.846Z,35.50
2018-11-12T20:52:43.976Z,40.83
2018-11-12T20:55:13.760Z,35.97
2018-11-12T20:57:42.962Z,36.10
2018-11-12T21:00:17.205Z,36.10
2018-11-12T21:02:47.136Z,34.57
2018-11-12T21:05:16.470Z,36.77
2018-11-12T21:07:45.334Z,41.10
2018-11-12T21:10:15.710Z,44.13
2018-11-12T21:12:44.696Z,43.43
2018-11-12T21:15:14.343Z,40.70
2018-11-12T21:17:43.187Z,44.33
2018-11-12T21:20:16.778Z,41.73
2018-11-12T21:22:45.477Z,42.40
2018-11-12T21:25:15.619Z,42.67
2018-11-12T21:27:44.282Z,38.13
2018-11-12T21:30:17.291Z,41.10
2018-11-12T21:32:46.263Z,38.13
2018-11-12T21:35:14.955Z,41.07
2018-11-12T21:37:43.819Z,44.90
2018-11-12T21:40:14.947Z,44.37
2018-11-12T21:42:43.869Z,43.57
2018-11-12T21:45:14.079Z,39.30
2018-11-12T21:47:43.328Z,42.83
2018-11-12T21:50:14.034Z,46.77
2018-11-12T21:52:42.750Z,45.07
2018-11-12T21:55:12.208Z,45.63
2018-11-12T21:57:41.335Z,49.17
2018-11-12T22:00:20.861Z,45.97
2018-11-12T22:02:52.030Z,38.97
2018-11-12T22:05:20.865Z,39.80
2018-11-12T22:07:49.585Z,38.70
2018-11-12T22:10:18.753Z,40.47
2018-11-12T22:12:48.601Z,38.97
2018-11-12T22:15:17.260Z,48.23
2018-11-12T22:17:45.964Z,50.87
2018-11-12T22:20:15.954Z,41.93
2018-11-12T22:22:44.994Z,43.20
2018-11-12T22:25:14.940Z,41.23
2018-11-12T22:27:44.263Z,41.57
2018-11-12T22:30:18.996Z,42.57
2018-11-12T22:32:49.126Z,42.53
2018-11-12T22:35:17.827Z,41.80
2018-11-12T22:37:47.159Z,42.80
2018-11-12T22:40:17.432Z,44.00
2018-11-12T22:42:47.046Z,39.87
2018-11-12T22:45:17.084Z,42.23
2018-11-12T22:47:46.495Z,44.10
2018-11-12T22:50:15.139Z,42.83
2018-11-12T22:52:44.449Z,43.17
2018-11-12T22:55:14.541Z,42.97
2018-11-12T22:57:43.285Z,38.50
2018-11-12T23:00:21.522Z,39.13
2018-11-12T23:02:50.746Z,35.83
2018-11-12T23:05:19.846Z,38.27
2018-11-12T23:07:49.164Z,41.70
2018-11-12T23:10:19.035Z,38.50
2018-11-12T23:12:47.767Z,38.80
2018-11-12T23:15:16.821Z,42.57
2018-11-12T23:17:45.483Z,41.93
2018-11-12T23:20:17.386Z,41.07
2018-11-12T23:22:46.942Z,39.77
2018-11-12T23:25:15.612Z,38.20
2018-11-12T23:27:45.229Z,36.77
2018-11-12T23:30:15.416Z,41.23
2018-11-12T23:32:44.145Z,37.90
2018-11-12T23:35:14.993Z,38.33
2018-11-12T23:37:44.452Z,38.83
2018-11-12T23:40:13.641Z,36.27
2018-11-12T23:42:42.654Z,44.50
2018-11-12T23:45:11.362Z,41.10
2018-11-12T23:47:40.278Z,39.73
2018-11-12T23:50:11.067Z,42.73
2018-11-12T23:52:39.809Z,42.07
2018-11-12T23:55:08.588Z,45.80
2018-11-12T23:57:37.216Z,44.00
